sensor_id;sensor_type;location;lat;lon;timestamp;temperature;humidity
33093;DHT22;19456;46.104;12.908;2024-01-11T00:00:29;-0.60;99.90
33093;DHT22;19456;46.104;12.908;2024-01-11T00:02:54;-0.60;99.90
33093;DHT22;19456;46.104;12.908;2024-01-11T00:05:20;-0.50;99.90
33093;DHT22;19456;46.104;12.908;2024-01-11T00:07:47;-0.60;99.90
33093;DHT22;19456;46.104;12.908;2024-01-11T00:10:13;-0.70;99.90
33093;DHT22;19456;46.104;12.908;2024-01-11T00:12:39;-0.70;99.90
33093;DHT22;19456;46.104;12.908;2024-01-11T00:15:04;-0.60;99.90
33093;DHT22;19456;46.104;12.908;2024-01-11T00:17:30;-0.40;99.90
33093;DHT22;19456;46.104;12.908;2024-01-11T00:19:56;-0.50;99.90
33093;DHT22;19456;46.104;12.908;2024-01-11T00:22:22;-0.60;99.90
33093;DHT22;19456;46.104;12.908;2024-01-11T00:24:47;-0.70;99.90
33093;DHT22;19456;46.104;12.908;2024-01-11T00:27:13;-0.50;99.90
33093;DHT22;19456;46.104;12.908;2024-01-11T00:29:38;-0.50;99.90
33093;DHT22;19456;46.104;12.908;2024-01-11T00:32:04;-0.60;99.90
33093;DHT22;19456;46.104;12.908;2024-01-11T00:34:30;-0.60;99.90
33093;DHT22;19456;46.104;12.908;2024-01-11T00:36:55;-0.60;99.90
33093;DHT22;19456;46.104;12.908;2024-01-11T00:39:21;-0.50;99.90
33093;DHT22;19456;46.104;12.908;2024-01-11T00:41:46;-0.70;99.90
33093;DHT22;19456;46.104;12.908;2024-01-11T00:44:12;-0.70;99.90
33093;DHT22;19456;46.104;12.908;2024-01-11T00:46:39;-0.80;99.90
33093;DHT22;19456;46.104;12.908;2024-01-11T00:49:04;-0.80;99.90
33093;DHT22;19456;46.104;12.908;2024-01-11T00:51:30;-0.80;99.90
33093;DHT22;19456;46.104;12.908;2024-01-11T00:53:55;-0.90;99.90
33093;DHT22;19456;46.104;12.908;2024-01-11T00:56:21;-0.90;99.90
33093;DHT22;19456;46.104;12.908;2024-01-11T00:58:47;-1.00;99.90
33093;DHT22;19456;46.104;12.908;2024-01-11T01:01:12;-0.90;99.90
33093;DHT22;19456;46.104;12.908;2024-01-11T01:03:38;-0.90;99.90
33093;DHT22;19456;46.104;12.908;2024-01-11T01:06:04;-0.90;99.90
33093;DHT22;19456;46.104;12.908;2024-01-11T01:08:30;-1.00;99.90
33093;DHT22;19456;46.104;12.908;2024-01-11T01:10:55;-1.10;99.90
33093;DHT22;19456;46.104;12.908;2024-01-11T01:13:21;-1.20;99.90
33093;DHT22;19456;46.104;12.908;2024-01-11T01:15:47;-1.20;99.90
33093;DHT22;19456;46.104;12.908;2024-01-11T01:18:12;-1.20;99.90
33093;DHT22;19456;46.104;12.908;2024-01-11T01:20:38;-1.10;99.90
33093;DHT22;19456;46.104;12.908;2024-01-11T01:23:03;-1.20;99.90
33093;DHT22;19456;46.104;12.908;2024-01-11T01:25:29;-1.20;99.90
33093;DHT22;19456;46.104;12.908;2024-01-11T01:27:55;-1.10;99.90
33093;DHT22;19456;46.104;12.908;2024-01-11T01:30:20;-1.10;99.90
33093;DHT22;19456;46.104;12.908;2024-01-11T01:32:46;-1.20;99.90
33093;DHT22;19456;46.104;12.908;2024-01-11T01:35:11;-1.30;99.90
33093;DHT22;19456;46.104;12.908;2024-01-11T01:37:37;-1.40;99.90
33093;DHT22;19456;46.104;12.908;2024-01-11T01:40:03;-1.40;99.90
33093;DHT22;19456;46.104;12.908;2024-01-11T01:42:28;-1.40;99.90
33093;DHT22;19456;46.104;12.908;2024-01-11T01:44:54;-1.30;99.90
33093;DHT22;19456;46.104;12.908;2024-01-11T01:47:19;-1.30;99.90
33093;DHT22;19456;46.104;12.908;2024-01-11T01:49:45;-1.30;99.90
33093;DHT22;19456;46.104;12.908;2024-01-11T01:52:12;-1.20;99.90
33093;DHT22;19456;46.104;12.908;2024-01-11T01:54:39;-1.20;99.90
33093;DHT22;19456;46.104;12.908;2024-01-11T01:57:05;-1.10;99.90
33093;DHT22;19456;46.104;12.908;2024-01-11T01:59:31;-0.90;99.90
33093;DHT22;19456;46.104;12.908;2024-01-11T02:01:57;-0.90;99.90
33093;DHT22;19456;46.104;12.908;2024-01-11T02:04:22;-0.90;99.90
33093;DHT22;19456;46.104;12.908;2024-01-11T02:06:48;-0.90;99.90
33093;DHT22;19456;46.104;12.908;2024-01-11T02:09:14;-0.80;99.90
33093;DHT22;19456;46.104;12.908;2024-01-11T02:11:41;-0.90;99.90
33093;DHT22;19456;46.104;12.908;2024-01-11T02:14:07;-0.90;99.90
33093;DHT22;19456;46.104;12.908;2024-01-11T02:16:32;-0.90;99.90
33093;DHT22;19456;46.104;12.908;2024-01-11T02:18:58;-0.90;99.90
33093;DHT22;19456;46.104;12.908;2024-01-11T02:21:24;-0.90;99.90
33093;DHT22;19456;46.104;12.908;2024-01-11T02:24:03;-1.00;99.90
33093;DHT22;19456;46.104;12.908;2024-01-11T02:26:28;-1.00;99.90
33093;DHT22;19456;46.104;12.908;2024-01-11T02:28:54;-1.10;99.90
33093;DHT22;19456;46.104;12.908;2024-01-11T02:31:20;-1.20;99.90
33093;DHT22;19456;46.104;12.908;2024-01-11T02:33:45;-1.20;99.90
33093;DHT22;19456;46.104;12.908;2024-01-11T02:36:11;-1.20;99.90
33093;DHT22;19456;46.104;12.908;2024-01-11T02:38:36;-1.40;99.90
33093;DHT22;19456;46.104;12.908;2024-01-11T02:41:03;-1.30;99.90
33093;DHT22;19456;46.104;12.908;2024-01-11T02:43:30;-1.20;99.90
33093;DHT22;19456;46.104;12.908;2024-01-11T02:45:56;-1.30;99.90
33093;DHT22;19456;46.104;12.908;2024-01-11T02:48:27;-1.20;99.90
33093;DHT22;19456;46.104;12.908;2024-01-11T02:50:52;-1.20;99.90
33093;DHT22;19456;46.104;12.908;2024-01-11T02:53:18;-1.30;99.90
33093;DHT22;19456;46.104;12.908;2024-01-11T02:55:43;-1.40;99.90
33093;DHT22;19456;46.104;12.908;2024-01-11T02:58:09;-1.60;99.90
33093;DHT22;19456;46.104;12.908;2024-01-11T03:00:34;-1.50;99.90
33093;DHT22;19456;46.104;12.908;2024-01-11T03:03:00;-1.50;99.90
33093;DHT22;19456;46.104;12.908;2024-01-11T03:05:26;-1.30;99.90
33093;DHT22;19456;46.104;12.908;2024-01-11T03:07:51;-1.30;99.90
33093;DHT22;19456;46.104;12.908;2024-01-11T03:10:17;-1.40;99.90
33093;DHT22;19456;46.104;12.908;2024-01-11T03:12:42;-1.50;99.90
33093;DHT22;19456;46.104;12.908;2024-01-11T03:15:08;-1.60;99.90
33093;DHT22;19456;46.104;12.908;2024-01-11T03:17:34;-1.50;99.90
33093;DHT22;19456;46.104;12.908;2024-01-11T03:19:59;-1.50;99.90
33093;DHT22;19456;46.104;12.908;2024-01-11T03:22:25;-1.30;99.90
33093;DHT22;19456;46.104;12.908;2024-01-11T03:24:51;-1.20;99.90
33093;DHT22;19456;46.104;12.908;2024-01-11T03:27:16;-1.30;99.90
33093;DHT22;19456;46.104;12.908;2024-01-11T03:29:42;-1.30;99.90
33093;DHT22;19456;46.104;12.908;2024-01-11T03:32:08;-1.50;99.90
33093;DHT22;19456;46.104;12.908;2024-01-11T03:34:33;-1.60;99.90
33093;DHT22;19456;46.104;12.908;2024-01-11T03:36:59;-1.50;99.90
33093;DHT22;19456;46.104;12.908;2024-01-11T03:39:25;-1.60;99.90
33093;DHT22;19456;46.104;12.908;2024-01-11T03:41:50;-1.80;99.90
33093;DHT22;19456;46.104;12.908;2024-01-11T03:44:16;-1.70;99.90
33093;DHT22;19456;46.104;12.908;2024-01-11T03:46:41;-1.60;99.90
33093;DHT22;19456;46.104;12.908;2024-01-11T03:49:07;-1.60;99.90
33093;DHT22;19456;46.104;12.908;2024-01-11T03:51:33;-1.70;99.90
33093;DHT22;19456;46.104;12.908;2024-01-11T03:53:59;-1.60;99.90
33093;DHT22;19456;46.104;12.908;2024-01-11T03:56:24;-1.70;99.90
33093;DHT22;19456;46.104;12.908;2024-01-11T03:58:50;-1.70;99.90
33093;DHT22;19456;46.104;12.908;2024-01-11T04:01:16;-1.80;99.90
33093;DHT22;19456;46.104;12.908;2024-01-11T04:03:42;-1.70;99.90
33093;DHT22;19456;46.104;12.908;2024-01-11T04:06:07;-1.70;99.90
33093;DHT22;19456;46.104;12.908;2024-01-11T04:08:33;-1.60;99.90
33093;DHT22;19456;46.104;12.908;2024-01-11T04:11:01;-1.50;99.90
33093;DHT22;19456;46.104;12.908;2024-01-11T04:13:26;-1.40;99.90
33093;DHT22;19456;46.104;12.908;2024-01-11T04:15:52;-1.50;99.90
33093;DHT22;19456;46.104;12.908;2024-01-11T04:18:18;-1.40;99.90
33093;DHT22;19456;46.104;12.908;2024-01-11T04:20:43;-1.30;99.90
33093;DHT22;19456;46.104;12.908;2024-01-11T04:23:10;-1.40;99.90
33093;DHT22;19456;46.104;12.908;2024-01-11T04:25:35;-1.40;99.90
33093;DHT22;19456;46.104;12.908;2024-01-11T04:28:01;-1.40;99.90
33093;DHT22;19456;46.104;12.908;2024-01-11T04:30:26;-1.40;99.90
33093;DHT22;19456;46.104;12.908;2024-01-11T04:32:52;-1.50;99.90
33093;DHT22;19456;46.104;12.908;2024-01-11T04:35:18;-1.60;99.90
33093;DHT22;19456;46.104;12.908;2024-01-11T04:37:46;-1.60;99.90
33093;DHT22;19456;46.104;12.908;2024-01-11T04:40:12;-1.90;99.90
33093;DHT22;19456;46.104;12.908;2024-01-11T04:42:37;-1.80;99.90
33093;DHT22;19456;46.104;12.908;2024-01-11T04:45:03;-1.90;99.90
33093;DHT22;19456;46.104;12.908;2024-01-11T04:47:30;-1.90;99.90
33093;DHT22;19456;46.104;12.908;2024-01-11T04:49:55;-2.00;99.90
33093;DHT22;19456;46.104;12.908;2024-01-11T04:52:21;-2.10;99.90
33093;DHT22;19456;46.104;12.908;2024-01-11T04:54:46;-2.20;99.90
33093;DHT22;19456;46.104;12.908;2024-01-11T04:57:12;-2.10;99.90
33093;DHT22;19456;46.104;12.908;2024-01-11T04:59:37;-2.00;99.90
33093;DHT22;19456;46.104;12.908;2024-01-11T05:02:03;-2.10;99.90
33093;DHT22;19456;46.104;12.908;2024-01-11T05:04:29;-2.20;99.90
33093;DHT22;19456;46.104;12.908;2024-01-11T05:06:54;-2.00;99.90
33093;DHT22;19456;46.104;12.908;2024-01-11T05:09:20;-2.00;99.90
33093;DHT22;19456;46.104;12.908;2024-01-11T05:11:45;-1.80;99.90
33093;DHT22;19456;46.104;12.908;2024-01-11T05:14:11;-1.70;99.90
33093;DHT22;19456;46.104;12.908;2024-01-11T05:16:36;-1.50;99.90
33093;DHT22;19456;46.104;12.908;2024-01-11T05:19:02;-1.50;99.90
33093;DHT22;19456;46.104;12.908;2024-01-11T05:21:27;-1.60;99.90
33093;DHT22;19456;46.104;12.908;2024-01-11T05:23:53;-1.60;99.90
33093;DHT22;19456;46.104;12.908;2024-01-11T05:26:19;-1.70;99.90
33093;DHT22;19456;46.104;12.908;2024-01-11T05:28:45;-1.70;99.90
33093;DHT22;19456;46.104;12.908;2024-01-11T05:31:11;-1.70;99.90
33093;DHT22;19456;46.104;12.908;2024-01-11T05:33:37;-1.80;99.90
33093;DHT22;19456;46.104;12.908;2024-01-11T05:36:04;-1.70;99.90
33093;DHT22;19456;46.104;12.908;2024-01-11T05:38:30;-1.70;99.90
33093;DHT22;19456;46.104;12.908;2024-01-11T05:40:55;-1.70;99.90
33093;DHT22;19456;46.104;12.908;2024-01-11T05:43:21;-1.70;99.90
33093;DHT22;19456;46.104;12.908;2024-01-11T05:45:47;-1.80;99.90
33093;DHT22;19456;46.104;12.908;2024-01-11T05:48:13;-1.60;99.90
33093;DHT22;19456;46.104;12.908;2024-01-11T05:50:38;-1.60;99.90
33093;DHT22;19456;46.104;12.908;2024-01-11T05:53:04;-1.60;99.90
33093;DHT22;19456;46.104;12.908;2024-01-11T05:55:30;-1.50;99.90
33093;DHT22;19456;46.104;12.908;2024-01-11T05:57:55;-1.20;99.90
33093;DHT22;19456;46.104;12.908;2024-01-11T06:00:21;-1.10;99.90
33093;DHT22;19456;46.104;12.908;2024-01-11T06:02:47;-1.00;99.90
33093;DHT22;19456;46.104;12.908;2024-01-11T06:05:13;-0.90;99.90
33093;DHT22;19456;46.104;12.908;2024-01-11T06:07:39;-0.80;99.90
33093;DHT22;19456;46.104;12.908;2024-01-11T06:10:04;-0.90;99.90
33093;DHT22;19456;46.104;12.908;2024-01-11T06:12:31;-1.20;99.90
33093;DHT22;19456;46.104;12.908;2024-01-11T06:14:57;-1.30;99.90
33093;DHT22;19456;46.104;12.908;2024-01-11T06:17:23;-1.70;99.90
33093;DHT22;19456;46.104;12.908;2024-01-11T06:19:49;-1.90;99.90
33093;DHT22;19456;46.104;12.908;2024-01-11T06:22:14;-1.70;99.90
33093;DHT22;19456;46.104;12.908;2024-01-11T06:24:40;-1.60;99.90
33093;DHT22;19456;46.104;12.908;2024-01-11T06:27:05;-1.60;99.90
33093;DHT22;19456;46.104;12.908;2024-01-11T06:29:31;-1.60;99.90
33093;DHT22;19456;46.104;12.908;2024-01-11T06:31:57;-1.70;99.90
33093;DHT22;19456;46.104;12.908;2024-01-11T06:34:22;-1.70;99.90
33093;DHT22;19456;46.104;12.908;2024-01-11T06:36:48;-1.80;99.90
33093;DHT22;19456;46.104;12.908;2024-01-11T06:39:14;-2.00;99.90
33093;DHT22;19456;46.104;12.908;2024-01-11T06:41:39;-2.00;99.90
33093;DHT22;19456;46.104;12.908;2024-01-11T06:44:05;-2.20;99.90
33093;DHT22;19456;46.104;12.908;2024-01-11T06:46:30;-2.10;99.90
33093;DHT22;19456;46.104;12.908;2024-01-11T06:48:56;-2.10;99.90
33093;DHT22;19456;46.104;12.908;2024-01-11T06:51:22;-2.00;99.90
33093;DHT22;19456;46.104;12.908;2024-01-11T06:53:58;-1.90;99.90
33093;DHT22;19456;46.104;12.908;2024-01-11T06:56:25;-1.80;99.90
33093;DHT22;19456;46.104;12.908;2024-01-11T06:58:58;-1.60;99.90
33093;DHT22;19456;46.104;12.908;2024-01-11T07:01:28;-1.40;99.90
33093;DHT22;19456;46.104;12.908;2024-01-11T07:03:53;-1.30;99.90
33093;DHT22;19456;46.104;12.908;2024-01-11T07:06:19;-1.20;99.90
33093;DHT22;19456;46.104;12.908;2024-01-11T07:08:52;-1.10;99.90
33093;DHT22;19456;46.104;12.908;2024-01-11T07:17:00;-0.70;99.90
33093;DHT22;19456;46.104;12.908;2024-01-11T07:22:32;-0.50;99.90
33093;DHT22;19456;46.104;12.908;2024-01-11T07:25:00;-0.30;99.90
33093;DHT22;19456;46.104;12.908;2024-01-11T07:27:30;-0.10;99.90
33093;DHT22;19456;46.104;12.908;2024-01-11T07:29:58;-0.10;99.90
33093;DHT22;19456;46.104;12.908;2024-01-11T07:32:27;-0.30;99.90
33093;DHT22;19456;46.104;12.908;2024-01-11T07:34:55;-0.60;99.90
33093;DHT22;19456;46.104;12.908;2024-01-11T07:37:24;-1.10;99.90
33093;DHT22;19456;46.104;12.908;2024-01-11T07:39:52;-1.10;99.90
33093;DHT22;19456;46.104;12.908;2024-01-11T07:42:18;-1.10;99.90
33093;DHT22;19456;46.104;12.908;2024-01-11T07:44:53;-0.90;99.90
33093;DHT22;19456;46.104;12.908;2024-01-11T07:47:19;-0.90;99.90
33093;DHT22;19456;46.104;12.908;2024-01-11T07:49:44;-0.90;99.90
33093;DHT22;19456;46.104;12.908;2024-01-11T07:52:10;-0.90;99.90
33093;DHT22;19456;46.104;12.908;2024-01-11T07:54:36;-0.90;99.90
33093;DHT22;19456;46.104;12.908;2024-01-11T08:00:08;-1.00;99.90
33093;DHT22;19456;46.104;12.908;2024-01-11T08:02:34;-0.80;99.90
33093;DHT22;19456;46.104;12.908;2024-01-11T08:05:05;-0.70;99.90
33093;DHT22;19456;46.104;12.908;2024-01-11T08:10:50;-0.20;99.90
33093;DHT22;19456;46.104;12.908;2024-01-11T08:13:16;0.00;99.90
33093;DHT22;19456;46.104;12.908;2024-01-11T08:15:48;0.10;99.90
33093;DHT22;19456;46.104;12.908;2024-01-11T08:22:03;0.50;99.90
33093;DHT22;19456;46.104;12.908;2024-01-11T08:24:44;0.70;99.90
33093;DHT22;19456;46.104;12.908;2024-01-11T08:27:17;0.90;99.90
33093;DHT22;19456;46.104;12.908;2024-01-11T08:29:52;1.20;99.90
33093;DHT22;19456;46.104;12.908;2024-01-11T08:32:40;1.40;99.90
33093;DHT22;19456;46.104;12.908;2024-01-11T08:35:29;1.60;99.90
33093;DHT22;19456;46.104;12.908;2024-01-11T08:37:55;1.70;99.90
33093;DHT22;19456;46.104;12.908;2024-01-11T08:40:20;1.80;99.90
33093;DHT22;19456;46.104;12.908;2024-01-11T08:42:46;1.90;99.90
33093;DHT22;19456;46.104;12.908;2024-01-11T08:45:12;2.10;99.90
33093;DHT22;19456;46.104;12.908;2024-01-11T08:47:46;2.30;99.90
33093;DHT22;19456;46.104;12.908;2024-01-11T08:50:13;2.40;99.90
33093;DHT22;19456;46.104;12.908;2024-01-11T08:52:42;2.30;99.90
33093;DHT22;19456;46.104;12.908;2024-01-11T08:55:08;2.40;99.90
33093;DHT22;19456;46.104;12.908;2024-01-11T08:57:36;2.60;99.90
33093;DHT22;19456;46.104;12.908;2024-01-11T09:00:03;2.70;99.90
33093;DHT22;19456;46.104;12.908;2024-01-11T09:02:45;2.80;99.90
33093;DHT22;19456;46.104;12.908;2024-01-11T09:08:23;3.10;99.90
33093;DHT22;19456;46.104;12.908;2024-01-11T09:10:49;3.20;99.90
33093;DHT22;19456;46.104;12.908;2024-01-11T09:13:20;3.20;99.90
33093;DHT22;19456;46.104;12.908;2024-01-11T09:15:52;3.20;99.90
33093;DHT22;19456;46.104;12.908;2024-01-11T09:18:20;3.30;99.90
33093;DHT22;19456;46.104;12.908;2024-01-11T09:20:47;3.50;99.90
33093;DHT22;19456;46.104;12.908;2024-01-11T09:23:14;3.50;99.90
33093;DHT22;19456;46.104;12.908;2024-01-11T09:25:41;3.60;99.90
33093;DHT22;19456;46.104;12.908;2024-01-11T09:28:07;3.60;99.90
33093;DHT22;19456;46.104;12.908;2024-01-11T09:30:34;3.70;99.90
33093;DHT22;19456;46.104;12.908;2024-01-11T09:33:00;3.80;99.90
33093;DHT22;19456;46.104;12.908;2024-01-11T09:35:26;3.90;99.90
33093;DHT22;19456;46.104;12.908;2024-01-11T09:37:52;4.00;99.90
33093;DHT22;19456;46.104;12.908;2024-01-11T09:40:18;4.00;99.90
33093;DHT22;19456;46.104;12.908;2024-01-11T09:42:44;4.10;99.90
33093;DHT22;19456;46.104;12.908;2024-01-11T09:45:14;4.20;99.90
33093;DHT22;19456;46.104;12.908;2024-01-11T09:47:46;4.30;99.90
33093;DHT22;19456;46.104;12.908;2024-01-11T09:50:28;4.40;99.90
33093;DHT22;19456;46.104;12.908;2024-01-11T09:56:03;4.60;99.90
33093;DHT22;19456;46.104;12.908;2024-01-11T09:58:34;4.80;99.90
33093;DHT22;19456;46.104;12.908;2024-01-11T10:01:09;5.00;99.90
33093;DHT22;19456;46.104;12.908;2024-01-11T10:03:49;5.10;99.90
33093;DHT22;19456;46.104;12.908;2024-01-11T10:06:52;5.20;99.90
33093;DHT22;19456;46.104;12.908;2024-01-11T10:09:19;5.20;99.90
33093;DHT22;19456;46.104;12.908;2024-01-11T10:11:46;5.30;99.90
33093;DHT22;19456;46.104;12.908;2024-01-11T10:14:15;5.30;99.90
33093;DHT22;19456;46.104;12.908;2024-01-11T10:16:42;5.40;99.90
33093;DHT22;19456;46.104;12.908;2024-01-11T10:19:09;5.40;99.90
33093;DHT22;19456;46.104;12.908;2024-01-11T10:21:39;5.40;99.90
33093;DHT22;19456;46.104;12.908;2024-01-11T10:24:05;5.40;99.90
33093;DHT22;19456;46.104;12.908;2024-01-11T10:26:31;5.50;99.90
33093;DHT22;19456;46.104;12.908;2024-01-11T10:28:59;5.60;99.90
33093;DHT22;19456;46.104;12.908;2024-01-11T10:31:24;5.70;99.90
33093;DHT22;19456;46.104;12.908;2024-01-11T10:33:53;5.70;99.90
33093;DHT22;19456;46.104;12.908;2024-01-11T10:36:21;5.80;99.90
33093;DHT22;19456;46.104;12.908;2024-01-11T10:38:47;5.80;99.90
33093;DHT22;19456;46.104;12.908;2024-01-11T10:41:14;5.90;99.90
33093;DHT22;19456;46.104;12.908;2024-01-11T10:43:44;5.90;99.90
33093;DHT22;19456;46.104;12.908;2024-01-11T10:46:12;6.10;99.90
33093;DHT22;19456;46.104;12.908;2024-01-11T10:48:38;6.20;99.90
33093;DHT22;19456;46.104;12.908;2024-01-11T10:51:12;6.30;99.90
33093;DHT22;19456;46.104;12.908;2024-01-11T10:53:47;6.40;99.90
33093;DHT22;19456;46.104;12.908;2024-01-11T10:56:30;6.50;99.90
33093;DHT22;19456;46.104;12.908;2024-01-11T11:02:04;6.80;99.90
33093;DHT22;19456;46.104;12.908;2024-01-11T11:04:32;6.90;99.90
33093;DHT22;19456;46.104;12.908;2024-01-11T11:13:30;7.60;99.90
33093;DHT22;19456;46.104;12.908;2024-01-11T11:16:16;8.20;99.90
33093;DHT22;19456;46.104;12.908;2024-01-11T11:18:43;9.00;99.90
33093;DHT22;19456;46.104;12.908;2024-01-11T11:21:10;9.40;99.90
33093;DHT22;19456;46.104;12.908;2024-01-11T11:23:39;9.80;99.90
33093;DHT22;19456;46.104;12.908;2024-01-11T11:26:13;10.30;99.90
33093;DHT22;19456;46.104;12.908;2024-01-11T11:28:39;10.80;99.90
33093;DHT22;19456;46.104;12.908;2024-01-11T11:31:05;10.60;97.90
33093;DHT22;19456;46.104;12.908;2024-01-11T11:33:31;10.70;97.90
33093;DHT22;19456;46.104;12.908;2024-01-11T11:35:58;10.70;97.00
33093;DHT22;19456;46.104;12.908;2024-01-11T11:38:25;10.80;96.90
33093;DHT22;19456;46.104;12.908;2024-01-11T11:40:57;11.20;96.10
33093;DHT22;19456;46.104;12.908;2024-01-11T11:43:41;11.20;95.40
33093;DHT22;19456;46.104;12.908;2024-01-11T11:46:16;11.70;94.80
33093;DHT22;19456;46.104;12.908;2024-01-11T11:48:57;11.60;93.70
33093;DHT22;19456;46.104;12.908;2024-01-11T11:51:23;11.90;93.20
33093;DHT22;19456;46.104;12.908;2024-01-11T11:53:49;12.40;92.10
33093;DHT22;19456;46.104;12.908;2024-01-11T11:56:22;12.60;91.80
33093;DHT22;19456;46.104;12.908;2024-01-11T11:59:07;12.90;91.50
33093;DHT22;19456;46.104;12.908;2024-01-11T12:01:37;13.00;90.70
33093;DHT22;19456;46.104;12.908;2024-01-11T12:04:02;13.40;90.20
33093;DHT22;19456;46.104;12.908;2024-01-11T12:06:28;13.90;88.70
33093;DHT22;19456;46.104;12.908;2024-01-11T12:08:54;14.00;85.40
33093;DHT22;19456;46.104;12.908;2024-01-11T12:11:21;13.70;85.00
33093;DHT22;19456;46.104;12.908;2024-01-11T12:13:47;14.20;84.30
33093;DHT22;19456;46.104;12.908;2024-01-11T12:16:14;14.40;83.50
33093;DHT22;19456;46.104;12.908;2024-01-11T12:18:40;14.10;82.10
33093;DHT22;19456;46.104;12.908;2024-01-11T12:21:05;14.60;80.30
33093;DHT22;19456;46.104;12.908;2024-01-11T12:23:33;14.70;78.90
33093;DHT22;19456;46.104;12.908;2024-01-11T12:26:03;14.90;77.60
33093;DHT22;19456;46.104;12.908;2024-01-11T12:28:33;15.80;75.50
33093;DHT22;19456;46.104;12.908;2024-01-11T12:30:59;16.50;72.60
33093;DHT22;19456;46.104;12.908;2024-01-11T12:33:25;16.70;70.20
33093;DHT22;19456;46.104;12.908;2024-01-11T12:35:51;16.90;68.60
33093;DHT22;19456;46.104;12.908;2024-01-11T12:38:17;16.90;66.30
33093;DHT22;19456;46.104;12.908;2024-01-11T12:40:42;17.90;64.90
33093;DHT22;19456;46.104;12.908;2024-01-11T12:43:08;18.70;63.10
33093;DHT22;19456;46.104;12.908;2024-01-11T12:45:34;18.40;60.80
33093;DHT22;19456;46.104;12.908;2024-01-11T12:48:00;18.80;59.30
33093;DHT22;19456;46.104;12.908;2024-01-11T12:50:27;18.70;58.30
33093;DHT22;19456;46.104;12.908;2024-01-11T12:53:06;18.60;58.00
33093;DHT22;19456;46.104;12.908;2024-01-11T12:55:32;18.70;57.90
33093;DHT22;19456;46.104;12.908;2024-01-11T12:58:03;19.30;56.00
33093;DHT22;19456;46.104;12.908;2024-01-11T13:00:29;19.80;54.60
33093;DHT22;19456;46.104;12.908;2024-01-11T13:02:55;19.90;54.10
33093;DHT22;19456;46.104;12.908;2024-01-11T13:05:20;20.40;52.70
33093;DHT22;19456;46.104;12.908;2024-01-11T13:07:46;20.20;52.20
33093;DHT22;19456;46.104;12.908;2024-01-11T13:10:11;20.60;51.20
33093;DHT22;19456;46.104;12.908;2024-01-11T13:12:37;20.60;51.40
33093;DHT22;19456;46.104;12.908;2024-01-11T13:15:03;21.50;50.40
33093;DHT22;19456;46.104;12.908;2024-01-11T13:17:30;20.70;48.70
33093;DHT22;19456;46.104;12.908;2024-01-11T13:19:55;20.90;50.90
33093;DHT22;19456;46.104;12.908;2024-01-11T13:22:21;20.70;50.50
33093;DHT22;19456;46.104;12.908;2024-01-11T13:24:47;20.90;50.80
33093;DHT22;19456;46.104;12.908;2024-01-11T13:27:12;21.20;47.60
33093;DHT22;19456;46.104;12.908;2024-01-11T13:29:38;20.50;49.40
33093;DHT22;19456;46.104;12.908;2024-01-11T13:32:04;21.20;48.20
33093;DHT22;19456;46.104;12.908;2024-01-11T13:34:29;21.40;48.00
33093;DHT22;19456;46.104;12.908;2024-01-11T13:36:55;20.90;47.60
33093;DHT22;19456;46.104;12.908;2024-01-11T13:39:20;20.50;49.70
33093;DHT22;19456;46.104;12.908;2024-01-11T13:41:46;20.90;48.90
33093;DHT22;19456;46.104;12.908;2024-01-11T13:44:12;20.30;49.40
33093;DHT22;19456;46.104;12.908;2024-01-11T13:46:38;19.40;50.20
33093;DHT22;19456;46.104;12.908;2024-01-11T13:49:03;19.50;49.80
33093;DHT22;19456;46.104;12.908;2024-01-11T13:51:33;19.40;49.40
33093;DHT22;19456;46.104;12.908;2024-01-11T13:53:58;19.30;48.50
33093;DHT22;19456;46.104;12.908;2024-01-11T13:56:28;19.20;49.50
33093;DHT22;19456;46.104;12.908;2024-01-11T13:58:53;19.00;49.60
33093;DHT22;19456;46.104;12.908;2024-01-11T14:01:20;18.20;51.00
33093;DHT22;19456;46.104;12.908;2024-01-11T14:03:45;16.80;52.80
33093;DHT22;19456;46.104;12.908;2024-01-11T14:06:11;16.50;55.10
33093;DHT22;19456;46.104;12.908;2024-01-11T14:08:37;16.50;54.60
33093;DHT22;19456;46.104;12.908;2024-01-11T14:11:03;15.90;54.90
33093;DHT22;19456;46.104;12.908;2024-01-11T14:13:29;16.10;56.00
33093;DHT22;19456;46.104;12.908;2024-01-11T14:15:55;16.70;55.70
33093;DHT22;19456;46.104;12.908;2024-01-11T14:18:22;16.70;55.40
33093;DHT22;19456;46.104;12.908;2024-01-11T14:20:50;15.50;55.90
33093;DHT22;19456;46.104;12.908;2024-01-11T14:23:17;14.70;58.20
33093;DHT22;19456;46.104;12.908;2024-01-11T14:25:43;13.70;60.80
33093;DHT22;19456;46.104;12.908;2024-01-11T14:28:12;12.80;63.70
33093;DHT22;19456;46.104;12.908;2024-01-11T14:30:40;11.60;69.20
33093;DHT22;19456;46.104;12.908;2024-01-11T14:33:09;10.90;72.00
33093;DHT22;19456;46.104;12.908;2024-01-11T14:35:38;10.40;74.30
33093;DHT22;19456;46.104;12.908;2024-01-11T14:38:06;10.00;76.90
33093;DHT22;19456;46.104;12.908;2024-01-11T14:40:34;9.80;77.70
33093;DHT22;19456;46.104;12.908;2024-01-11T14:43:02;9.40;80.30
33093;DHT22;19456;46.104;12.908;2024-01-11T14:45:29;8.90;80.80
33093;DHT22;19456;46.104;12.908;2024-01-11T14:47:55;8.90;81.20
33093;DHT22;19456;46.104;12.908;2024-01-11T14:50:29;8.80;80.70
33093;DHT22;19456;46.104;12.908;2024-01-11T14:52:55;8.70;82.10
33093;DHT22;19456;46.104;12.908;2024-01-11T14:55:20;8.60;82.20
33093;DHT22;19456;46.104;12.908;2024-01-11T14:57:46;8.50;82.90
33093;DHT22;19456;46.104;12.908;2024-01-11T15:00:14;8.50;84.70
33093;DHT22;19456;46.104;12.908;2024-01-11T15:02:41;8.30;87.20
33093;DHT22;19456;46.104;12.908;2024-01-11T15:05:12;8.20;86.70
33093;DHT22;19456;46.104;12.908;2024-01-11T15:07:37;8.20;86.70
33093;DHT22;19456;46.104;12.908;2024-01-11T15:10:03;8.20;87.20
33093;DHT22;19456;46.104;12.908;2024-01-11T15:12:29;8.00;89.10
33093;DHT22;19456;46.104;12.908;2024-01-11T15:14:55;8.00;88.80
33093;DHT22;19456;46.104;12.908;2024-01-11T15:17:23;7.90;90.20
33093;DHT22;19456;46.104;12.908;2024-01-11T15:19:49;7.60;92.10
33093;DHT22;19456;46.104;12.908;2024-01-11T15:22:15;7.50;91.90
33093;DHT22;19456;46.104;12.908;2024-01-11T15:24:41;7.50;92.20
33093;DHT22;19456;46.104;12.908;2024-01-11T15:27:11;7.50;92.10
33093;DHT22;19456;46.104;12.908;2024-01-11T15:29:37;7.60;92.30
33093;DHT22;19456;46.104;12.908;2024-01-11T15:32:04;7.50;93.20
33093;DHT22;19456;46.104;12.908;2024-01-11T15:34:30;7.30;94.00
33093;DHT22;19456;46.104;12.908;2024-01-11T15:36:56;7.10;94.40
33093;DHT22;19456;46.104;12.908;2024-01-11T15:39:22;7.00;96.10
33093;DHT22;19456;46.104;12.908;2024-01-11T15:41:48;7.00;95.80
33093;DHT22;19456;46.104;12.908;2024-01-11T15:44:15;6.90;96.70
33093;DHT22;19456;46.104;12.908;2024-01-11T15:46:41;6.80;96.40
33093;DHT22;19456;46.104;12.908;2024-01-11T15:49:06;6.80;97.50
33093;DHT22;19456;46.104;12.908;2024-01-11T15:51:32;6.60;98.50
33093;DHT22;19456;46.104;12.908;2024-01-11T15:53:58;6.50;98.90